createdAt,value
2022-08-09T00:02:06.688Z,27.11
2022-08-09T00:05:02.904Z,27.14
2022-08-09T00:08:00.023Z,27.16
2022-08-09T00:10:47.878Z,27.13
2022-08-09T00:13:33.772Z,27.14
2022-08-09T00:16:26.364Z,27.14
2022-08-09T00:19:22.877Z,27.15
2022-08-09T00:22:09.297Z,27.09
2022-08-09T00:24:57.161Z,27.07
2022-08-09T00:27:43.456Z,27.12
2022-08-09T00:30:34.235Z,27.11
2022-08-09T00:33:20.341Z,27.06
2022-08-09T00:36:19.929Z,27.10
2022-08-09T00:39:05.736Z,26.99
2022-08-09T00:44:11.477Z,27.00
2022-08-09T00:45:14.840Z,27.04
2022-08-09T00:48:03.371Z,27.01
2022-08-09T00:50:52.126Z,27.01
2022-08-09T00:53:39.825Z,26.99
2022-08-09T00:56:25.897Z,26.89
2022-08-09T00:59:12.266Z,26.94
2022-08-09T01:02:06.457Z,26.96
2022-08-09T01:05:13.923Z,26.87
2022-08-09T01:08:49.406Z,26.70
2022-08-09T01:11:56.174Z,26.78
2022-08-09T01:14:52.690Z,26.78
2022-08-09T01:17:45.289Z,26.77
2022-08-09T01:20:43.229Z,26.66
2022-08-09T01:24:04.873Z,26.62
2022-08-09T01:27:08.212Z,26.54
2022-08-09T01:29:58.204Z,26.58
2022-08-09T01:32:46.589Z,26.57
2022-08-09T01:35:38.999Z,26.56
2022-08-09T01:38:30.130Z,26.48
2022-08-09T01:41:26.343Z,26.54
2022-08-09T01:44:16.117Z,26.47
2022-08-09T01:47:06.296Z,26.49
2022-08-09T01:49:58.557Z,26.56
2022-08-09T01:52:45.185Z,26.58
2022-08-09T01:55:32.493Z,26.44
2022-08-09T01:58:18.904Z,26.49
2022-08-09T02:01:11.497Z,26.42
2022-08-09T02:04:05.534Z,26.46
2022-08-09T02:07:15.474Z,26.41
2022-08-09T02:10:30.471Z,26.38
2022-08-09T02:13:17.112Z,26.47
2022-08-09T02:16:05.081Z,26.46
2022-08-09T02:18:52.082Z,26.35
2022-08-09T02:21:40.711Z,26.42
2022-08-09T02:24:30.328Z,26.40
2022-08-09T02:27:18.670Z,26.23
2022-08-09T02:30:06.160Z,26.23
2022-08-09T02:32:53.880Z,26.29
2022-08-09T02:36:02.744Z,26.29
2022-08-09T02:38:58.870Z,26.18
2022-08-09T02:41:48.414Z,26.26
2022-08-09T02:44:47.916Z,26.16
2022-08-09T02:47:57.391Z,26.05
2022-08-09T02:50:51.895Z,26.15
2022-08-09T02:53:59.712Z,26.21
2022-08-09T02:56:51.085Z,26.16
2022-08-09T02:59:40.285Z,26.22
2022-08-09T03:02:58.313Z,26.19
2022-08-09T03:05:46.590Z,26.20
2022-08-09T03:08:34.684Z,26.19
2022-08-09T03:12:06.515Z,26.18
2022-08-09T03:14:31.756Z,26.22
2022-08-09T03:17:26.628Z,26.12
2022-08-09T03:20:14.417Z,26.14
2022-08-09T03:23:14.969Z,26.10
2022-08-09T03:26:07.094Z,26.06
2022-08-09T03:28:55.477Z,26.04
2022-08-09T03:31:59.502Z,24.86
2022-08-09T03:34:48.074Z,25.52
2022-08-09T03:37:55.528Z,25.32
2022-08-09T03:40:40.321Z,25.59
2022-08-09T03:43:31.517Z,25.56
2022-08-09T03:46:18.678Z,25.62
2022-08-09T03:49:09.076Z,25.65
2022-08-09T03:52:00.132Z,25.75
2022-08-09T03:54:49.775Z,25.75
2022-08-09T03:57:44.737Z,25.44
2022-08-09T04:00:44.537Z,25.67
2022-08-09T04:03:45.833Z,25.69
2022-08-09T04:06:32.641Z,25.53
2022-08-09T04:09:48.214Z,25.59
2022-08-09T04:12:47.680Z,25.60
2022-08-09T04:15:52.520Z,25.65
2022-08-09T04:18:42.728Z,25.59
2022-08-09T04:21:31.734Z,25.37
2022-08-09T04:24:27.573Z,25.51
2022-08-09T04:27:13.666Z,25.45
2022-08-09T04:30:00.403Z,25.65
2022-08-09T04:32:48.284Z,25.58
2022-08-09T04:35:34.461Z,25.65
2022-08-09T04:38:21.093Z,25.63
2022-08-09T04:41:11.815Z,25.63
2022-08-09T04:44:07.275Z,25.63
2022-08-09T04:46:58.909Z,25.64
2022-08-09T04:49:55.094Z,25.67
2022-08-09T04:52:42.217Z,25.73
2022-08-09T04:55:28.592Z,25.82
2022-08-09T04:58:27.564Z,25.86
2022-08-09T05:01:16.238Z,25.76
2022-08-09T05:04:04.851Z,25.87
2022-08-09T05:06:50.797Z,25.89
2022-08-09T05:09:45.439Z,25.91
2022-08-09T05:12:36.415Z,25.83
2022-08-09T05:15:43.105Z,25.95
2022-08-09T05:18:38.483Z,25.92
2022-08-09T05:21:47.165Z,26.00
2022-08-09T05:24:38.675Z,26.02
2022-08-09T05:27:24.571Z,26.08
2022-08-09T05:30:12.009Z,26.09
2022-08-09T05:33:01.851Z,26.06
2022-08-09T05:35:50.874Z,26.06
2022-08-09T05:38:39.133Z,26.03
2022-08-09T05:41:25.612Z,26.17
2022-08-09T05:44:11.474Z,26.08
2022-08-09T05:46:57.604Z,26.16
2022-08-09T05:50:25.456Z,26.13
2022-08-09T05:52:53.649Z,26.02
2022-08-09T05:55:40.101Z,26.18
2022-08-09T05:58:26.731Z,26.21
2022-08-09T06:01:16.025Z,26.25
2022-08-09T06:04:05.815Z,26.28
2022-08-09T06:06:52.134Z,26.23
2022-08-09T06:09:54.780Z,26.26
2022-08-09T06:12:44.596Z,26.22
2022-08-09T06:33:40.699Z,24.58
2022-08-09T06:36:30.022Z,24.73
2022-08-09T06:39:16.566Z,24.93
2022-08-09T06:42:08.853Z,25.25
2022-08-09T06:44:58.573Z,25.50
2022-08-09T06:47:45.306Z,25.75
2022-08-09T11:46:57.114Z,26.34
2022-08-09T11:50:56.053Z,26.68
2022-08-09T11:53:28.167Z,27.22
2022-08-09T11:56:20.974Z,27.53
2022-08-09T11:59:30.473Z,27.92
2022-08-09T12:02:37.510Z,28.21
2022-08-09T12:05:42.138Z,28.43
2022-08-09T12:08:33.010Z,28.81
2022-08-09T12:11:22.976Z,29.05
2022-08-09T12:14:28.784Z,29.29
2022-08-09T12:17:27.850Z,29.48
2022-08-09T12:20:27.705Z,29.31
2022-08-09T12:23:13.697Z,29.34
2022-08-09T12:26:11.235Z,29.56
2022-08-09T12:29:12.889Z,29.72
2022-08-09T12:32:12.553Z,29.80
2022-08-09T12:35:04.914Z,29.65
2022-08-09T12:37:56.915Z,29.64
2022-08-09T12:40:51.807Z,29.69
2022-08-09T12:44:05.674Z,29.73
2022-08-09T12:46:49.234Z,28.80
2022-08-09T12:49:36.980Z,28.49
2022-08-09T12:52:42.822Z,28.99
2022-08-09T12:56:11.478Z,28.14
2022-08-09T12:58:42.851Z,28.07
2022-08-09T13:01:29.451Z,28.28
2022-08-09T13:04:37.988Z,28.46
2022-08-09T13:07:28.748Z,28.73
2022-08-09T13:10:34.788Z,28.58
2022-08-09T13:14:11.890Z,28.64
2022-08-09T13:16:44.927Z,28.36
2022-08-09T13:20:07.365Z,28.72
2022-08-09T13:23:01.647Z,28.97
2022-08-09T13:25:57.333Z,28.74
2022-08-09T13:29:06.524Z,28.51
2022-08-09T13:32:15.991Z,28.93
2022-08-09T13:35:04.412Z,27.97
2022-08-09T13:37:57.778Z,28.38
2022-08-09T13:41:50.896Z,28.64
2022-08-09T13:43:51.030Z,29.02
2022-08-09T13:47:16.477Z,28.95
2022-08-09T13:49:57.124Z,29.46
2022-08-09T13:52:47.896Z,29.06
2022-08-09T13:55:34.001Z,29.51
2022-08-09T13:58:23.099Z,28.56
2022-08-09T14:01:13.496Z,29.08
2022-08-09T14:04:23.627Z,29.42
2022-08-09T14:07:10.385Z,29.87
2022-08-09T14:09:56.731Z,30.07
2022-08-09T14:12:44.294Z,30.25
2022-08-09T14:16:10.604Z,30.61
2022-08-09T14:18:36.971Z,30.54
2022-08-09T14:21:24.318Z,30.66
2022-08-09T14:24:22.303Z,30.40
2022-08-09T14:27:20.354Z,30.39
2022-08-09T14:30:41.378Z,30.80
2022-08-09T14:33:14.043Z,31.14
2022-08-09T14:36:20.916Z,31.42
2022-08-09T14:39:08.965Z,31.57
2022-08-09T14:41:55.315Z,31.72
2022-08-09T14:44:48.388Z,31.80
2022-08-09T14:47:45.290Z,31.84
2022-08-09T14:50:37.330Z,32.02
2022-08-09T14:53:23.900Z,31.70
2022-08-09T14:56:09.798Z,31.40
2022-08-09T14:59:00.573Z,31.64
2022-08-09T15:01:47.065Z,31.76
2022-08-09T15:04:33.488Z,31.60
2022-08-09T15:07:19.653Z,31.64
2022-08-09T15:10:10.841Z,31.65
2022-08-09T15:13:03.180Z,31.60
2022-08-09T15:15:49.927Z,31.47
2022-08-09T15:18:37.969Z,31.58
2022-08-09T15:21:57.534Z,31.57
2022-08-09T15:24:31.095Z,31.56
2022-08-09T15:27:17.127Z,31.54
2022-08-09T15:30:56.453Z,31.49
2022-08-09T15:33:23.318Z,31.44
2022-08-09T15:36:18.902Z,31.39
2022-08-09T15:39:13.702Z,31.35
2022-08-09T15:42:01.009Z,31.29
2022-08-09T15:44:47.154Z,31.42
2022-08-09T15:47:51.437Z,31.56
2022-08-09T15:50:43.719Z,31.58
2022-08-09T15:54:04.880Z,31.55
2022-08-09T15:56:37.419Z,31.60
2022-08-09T15:59:23.664Z,31.51
2022-08-09T16:02:09.840Z,31.47
2022-08-09T16:04:59.403Z,31.30
2022-08-09T16:07:51.096Z,31.27
2022-08-09T16:10:56.383Z,31.19
2022-08-09T16:14:03.275Z,30.92
2022-08-09T16:16:49.029Z,30.92
2022-08-09T16:19:49.355Z,30.88
2022-08-09T16:22:48.867Z,30.91
2022-08-09T16:25:39.534Z,30.64
2022-08-09T16:28:26.747Z,30.56
2022-08-09T16:31:16.066Z,30.37
2022-08-09T16:34:04.069Z,30.55
2022-08-09T16:36:50.793Z,30.46
2022-08-09T16:39:48.001Z,30.24
2022-08-09T16:42:45.270Z,30.18
2022-08-09T16:45:32.530Z,30.25
2022-08-09T16:48:42.030Z,30.16
2022-08-09T16:51:24.905Z,30.21
2022-08-09T16:54:34.224Z,30.06
2022-08-09T16:57:16.805Z,30.11
2022-08-09T17:00:04.638Z,30.12
2022-08-09T17:02:50.845Z,29.88
2022-08-09T17:06:07.079Z,30.03
2022-08-09T17:09:03.211Z,29.96
2022-08-09T17:11:52.538Z,29.99
2022-08-09T17:14:39.175Z,29.91
2022-08-09T17:17:50.597Z,29.87
2022-08-09T17:20:46.462Z,29.64
2022-08-09T17:24:21.328Z,29.54
2022-08-09T17:26:41.391Z,29.43
2022-08-09T17:29:31.378Z,29.33
2022-08-09T17:32:20.424Z,29.14
2022-08-09T17:35:13.310Z,28.95
2022-08-09T17:38:02.738Z,28.71
2022-08-09T17:41:06.398Z,28.54
2022-08-09T17:44:42.268Z,28.42
2022-08-09T17:46:59.124Z,28.40
2022-08-09T17:49:54.283Z,28.32
2022-08-09T17:52:43.999Z,28.31
2022-08-09T17:55:49.618Z,28.30
2022-08-09T17:58:37.527Z,28.21
2022-08-09T18:01:24.051Z,28.18
2022-08-09T18:04:10.148Z,28.09
2022-08-09T18:06:59.229Z,28.12
2022-08-09T18:09:45.444Z,27.91
2022-08-09T18:13:43.210Z,27.97
2022-08-09T18:16:08.784Z,27.95
2022-08-09T18:18:55.436Z,27.77
2022-08-09T18:21:42.173Z,27.75
2022-08-09T18:24:28.342Z,27.64
2022-08-09T18:27:49.195Z,27.45
2022-08-09T18:30:41.837Z,27.38
2022-08-09T18:33:29.704Z,27.23
2022-08-09T18:36:25.934Z,27.17
2022-08-09T18:39:18.856Z,27.03
2022-08-09T18:42:08.072Z,26.83
2022-08-09T18:44:55.187Z,26.72
2022-08-09T18:47:41.896Z,26.65
2022-08-09T18:50:33.806Z,26.49
2022-08-09T18:53:22.419Z,26.53
2022-08-09T18:56:09.394Z,26.43
2022-08-09T18:58:56.455Z,26.39
2022-08-09T19:01:46.353Z,26.16
2022-08-09T19:04:34.764Z,26.28
2022-08-09T19:07:21.251Z,26.31
2022-08-09T19:10:17.073Z,26.18
2022-08-09T19:13:22.539Z,26.18
2022-08-09T19:16:20.868Z,26.05
2022-08-09T19:19:21.508Z,26.10
2022-08-09T19:22:12.384Z,25.45
2022-08-09T19:25:11.679Z,25.78
2022-08-09T19:28:12.999Z,25.60
2022-08-09T19:30:59.934Z,25.44
2022-08-09T19:33:45.822Z,25.11
2022-08-09T19:36:32.797Z,25.27
2022-08-09T19:39:21.040Z,25.13
2022-08-09T19:42:31.050Z,25.13
2022-08-09T19:45:17.711Z,24.74
2022-08-09T19:48:04.155Z,24.94
2022-08-09T19:50:54.402Z,24.63
2022-08-09T19:53:46.990Z,24.37
2022-08-09T19:56:35.600Z,24.23
2022-08-09T19:59:59.595Z,24.36
2022-08-09T20:04:17.215Z,24.36
2022-08-09T20:05:46.913Z,24.09
2022-08-09T20:08:36.766Z,23.65
2022-08-09T20:11:26.824Z,23.51
2022-08-09T20:14:15.648Z,22.30
2022-08-09T20:17:02.468Z,23.51
2022-08-09T20:19:54.727Z,22.70
2022-08-09T20:22:42.914Z,23.38
2022-08-09T20:25:38.292Z,23.63
2022-08-09T20:28:48.231Z,23.19
2022-08-09T20:31:51.200Z,23.45
2022-08-09T20:34:43.892Z,23.50
2022-08-09T20:37:37.757Z,23.63
2022-08-09T20:40:38.445Z,23.40
2022-08-09T20:43:27.509Z,23.54
2022-08-09T20:46:33.246Z,23.57
2022-08-09T20:49:21.006Z,23.57
2022-08-09T20:52:10.737Z,23.70
2022-08-09T20:55:01.671Z,23.72
2022-08-09T20:58:08.081Z,23.79
2022-08-09T21:01:14.063Z,23.81
2022-08-09T21:05:49.038Z,23.71
2022-08-09T21:07:13.152Z,23.51
2022-08-09T21:10:00.278Z,23.72
2022-08-09T21:15:54.281Z,23.75
2022-08-09T21:20:02.225Z,23.74
2022-08-09T21:21:52.901Z,23.80
2022-08-09T21:25:01.360Z,23.85
2022-08-09T21:27:51.815Z,23.82
2022-08-09T21:30:40.747Z,23.84
2022-08-09T21:33:27.432Z,23.84
2022-08-09T21:36:28.097Z,23.79
2022-08-09T21:39:22.120Z,23.88
2022-08-09T21:42:14.580Z,23.80
2022-08-09T21:45:00.725Z,23.89
2022-08-09T21:47:51.040Z,23.86
2022-08-09T21:50:38.865Z,23.95
2022-08-09T21:53:40.721Z,23.93
2022-08-09T21:56:43.199Z,23.93
2022-08-09T21:59:42.760Z,23.96
2022-08-09T22:02:36.078Z,23.94
2022-08-09T22:05:23.716Z,23.91
2022-08-09T22:08:24.439Z,23.94
2022-08-09T22:12:06.365Z,23.77
2022-08-09T22:14:16.727Z,23.88
2022-08-09T22:17:05.679Z,23.90
2022-08-09T22:19:59.321Z,23.89
2022-08-09T22:22:47.290Z,23.89
2022-08-09T22:26:07.647Z,23.90
2022-08-09T22:28:47.358Z,23.74
2022-08-09T22:31:50.474Z,23.89
2022-08-09T22:34:43.223Z,23.80
2022-08-09T22:37:40.404Z,23.89
2022-08-09T22:40:28.413Z,23.87
2022-08-09T22:43:17.047Z,23.87
2022-08-09T22:48:18.806Z,23.82
2022-08-09T22:49:27.191Z,23.79
2022-08-09T22:52:17.663Z,23.89
2022-08-09T22:55:07.301Z,23.77
2022-08-09T22:57:59.894Z,23.87
2022-08-09T23:00:46.740Z,23.88
2022-08-09T23:04:04.134Z,23.89
2022-08-09T23:06:59.741Z,23.89
2022-08-09T23:09:46.818Z,23.88
2022-08-09T23:12:32.910Z,23.87
2022-08-09T23:15:19.163Z,23.89
2022-08-09T23:18:05.358Z,23.83
2022-08-09T23:20:51.199Z,23.85
2022-08-09T23:23:37.199Z,23.84
2022-08-09T23:26:23.320Z,23.84
2022-08-09T23:29:13.446Z,23.82
2022-08-09T23:31:59.695Z,23.83
2022-08-09T23:34:45.823Z,23.83
2022-08-09T23:37:31.908Z,23.83
2022-08-09T23:40:18.300Z,23.81
2022-08-09T23:43:04.173Z,23.84
2022-08-09T23:45:49.983Z,23.81
2022-08-09T23:48:36.022Z,23.80
2022-08-09T23:51:22.073Z,23.79
2022-08-09T23:54:08.524Z,23.77
2022-08-09T23:56:56.252Z,23.78
